createdAt,value
2019-04-23T00:00:20.479Z,24.36
2019-04-23T00:03:13.977Z,24.38
2019-04-23T00:10:53.950Z,24.44
2019-04-23T00:13:09.058Z,24.50
2019-04-23T00:16:03.015Z,24.54
2019-04-23T00:21:05.832Z,24.50
2019-04-23T00:23:35.240Z,24.57
2019-04-23T00:26:12.847Z,24.60
2019-04-23T00:28:41.543Z,24.59
2019-04-23T00:33:57.500Z,24.64
2019-04-23T00:36:19.887Z,24.68
2019-04-23T00:38:46.939Z,24.67
2019-04-23T00:41:20.830Z,24.66
2019-04-23T00:43:51.166Z,24.67
2019-04-23T00:46:23.420Z,24.67
2019-04-23T00:48:59.178Z,24.59
2019-04-23T00:51:27.719Z,24.54
2019-04-23T00:53:51.447Z,24.52
2019-04-23T00:56:38.672Z,24.47
2019-04-23T00:58:56.456Z,24.43
2019-04-23T01:03:57.860Z,24.24
2019-04-23T01:06:47.655Z,24.15
2019-04-23T01:09:06.853Z,24.16
2019-04-23T01:14:01.044Z,24.24
2019-04-23T01:16:32.945Z,24.27
2019-04-23T01:19:20.649Z,24.26
2019-04-23T01:21:26.516Z,24.25
2019-04-23T01:24:14.147Z,24.20
2019-04-23T01:27:39.295Z,24.19
2019-04-23T01:29:58.498Z,24.13
2019-04-23T01:32:32.170Z,24.02
2019-04-23T01:35:06.591Z,24.04
2019-04-23T01:37:36.513Z,24.03
2019-04-23T01:40:07.810Z,24.00
2019-04-23T01:42:42.189Z,23.97
2019-04-23T01:45:13.265Z,23.97
2019-04-23T01:47:43.836Z,23.95
2019-04-23T01:52:48.235Z,23.94
2019-04-23T01:55:19.888Z,23.89
2019-04-23T01:57:51.334Z,23.85
2019-04-23T02:02:49.627Z,23.83
2019-04-23T02:05:23.206Z,23.81
2019-04-23T02:07:58.439Z,23.79
2019-04-23T02:10:29.533Z,23.73
2019-04-23T02:12:56.425Z,23.66
2019-04-23T02:15:26.510Z,23.56
2019-04-23T02:17:58.736Z,23.48
2019-04-23T02:20:29.306Z,23.37
2019-04-23T02:26:01.276Z,23.12
2019-04-23T02:50:57.392Z,22.97
2019-04-23T02:53:45.538Z,22.95
2019-04-23T02:58:54.389Z,22.89
2019-04-23T03:01:19.549Z,22.89
2019-04-23T03:03:42.753Z,22.87
2019-04-23T03:11:20.004Z,22.78
2019-04-23T03:16:29.443Z,22.63
2019-04-23T03:19:01.562Z,22.68
2019-04-23T03:21:42.598Z,22.64
2019-04-23T03:24:20.801Z,22.61
2019-04-23T03:27:15.182Z,22.51
2019-04-23T03:29:40.459Z,22.51
2019-04-23T03:37:23.519Z,22.59
2019-04-23T03:39:55.078Z,22.60
2019-04-23T03:44:47.857Z,22.56
2019-04-23T03:47:13.888Z,22.54
2019-04-23T03:57:18.221Z,22.42
2019-04-23T04:02:37.695Z,22.34
2019-04-23T04:07:30.782Z,22.24
2019-04-23T04:09:52.084Z,22.22
2019-04-23T04:17:35.236Z,22.20
2019-04-23T04:20:20.252Z,22.18
2019-04-23T04:22:37.804Z,22.15
2019-04-23T04:27:45.617Z,21.97
2019-04-23T04:30:10.782Z,21.96
2019-04-23T04:32:53.386Z,21.91
2019-04-23T04:35:22.373Z,21.88
2019-04-23T04:42:59.026Z,21.80
2019-04-23T04:45:30.380Z,21.83
2019-04-23T04:47:44.714Z,21.77
2019-04-23T04:50:25.947Z,21.82
2019-04-23T04:55:28.362Z,21.79
2019-04-23T04:58:00.503Z,21.79
2019-04-23T05:00:42.977Z,21.78
2019-04-23T05:06:01.328Z,21.78
2019-04-23T05:08:15.957Z,21.80
2019-04-23T05:13:32.023Z,21.75
2019-04-23T05:15:44.797Z,21.79
2019-04-23T05:18:39.923Z,21.77
2019-04-23T05:21:01.891Z,21.78
2019-04-23T05:23:43.057Z,21.75
2019-04-23T05:26:02.854Z,21.72
2019-04-23T05:28:40.993Z,21.69
2019-04-23T05:31:12.373Z,21.75
2019-04-23T05:33:45.167Z,21.82
2019-04-23T05:41:20.007Z,21.93
2019-04-23T05:43:46.475Z,21.97
2019-04-23T05:46:25.076Z,22.04
2019-04-23T05:48:58.034Z,22.09
2019-04-23T05:53:50.957Z,22.16
2019-04-23T05:56:24.289Z,22.22
2019-04-23T05:58:58.216Z,22.30
2019-04-23T06:01:51.169Z,22.36
2019-04-23T06:09:12.751Z,22.42
2019-04-23T06:14:13.459Z,22.57
2019-04-23T06:16:41.856Z,22.72
2019-04-23T06:19:15.791Z,22.83
2019-04-23T06:21:59.864Z,22.97
2019-04-23T06:24:24.925Z,23.01
2019-04-23T06:26:51.630Z,23.06
2019-04-23T06:29:28.591Z,23.13
2019-04-23T06:31:55.295Z,23.12
2019-04-23T06:36:57.477Z,23.29
2019-04-23T06:39:38.172Z,23.45
2019-04-23T06:42:00.454Z,23.48
2019-04-23T06:44:44.978Z,23.50
2019-04-23T06:47:16.771Z,23.60
2019-04-23T06:49:54.517Z,23.72
2019-04-23T06:52:18.979Z,23.83
2019-04-23T06:54:56.571Z,23.98
2019-04-23T06:57:23.786Z,24.06
2019-04-23T06:59:55.564Z,24.09
2019-04-23T07:02:25.894Z,24.17
2019-04-23T07:05:03.441Z,24.12
2019-04-23T07:07:43.055Z,24.22
2019-04-23T07:09:58.018Z,24.36
2019-04-23T07:12:38.573Z,24.45
2019-04-23T07:17:29.023Z,24.59
2019-04-23T07:20:07.128Z,24.66
2019-04-23T07:22:34.870Z,24.66
2019-04-23T07:25:12.803Z,24.65
2019-04-23T07:27:43.083Z,24.77
2019-04-23T07:30:23.753Z,24.87
2019-04-23T07:32:52.981Z,24.93
2019-04-23T07:35:16.051Z,24.95
2019-04-23T07:38:08.286Z,24.95
2019-04-23T07:43:22.535Z,25.25
2019-04-23T07:46:20.260Z,25.40
2019-04-23T07:48:43.955Z,25.58
2019-04-23T07:51:21.024Z,25.70
2019-04-23T07:54:01.293Z,25.89
2019-04-23T07:56:45.623Z,26.04
2019-04-23T07:58:52.535Z,26.35
2019-04-23T08:01:32.128Z,26.65
2019-04-23T08:04:01.911Z,26.79
2019-04-23T08:06:41.310Z,27.01
2019-04-23T08:09:10.925Z,27.29
2019-04-23T08:14:08.425Z,27.78
2019-04-23T08:16:36.833Z,28.01
2019-04-23T08:19:25.505Z,28.17
2019-04-23T08:21:58.193Z,28.22
2019-04-23T08:24:47.972Z,28.30
2019-04-23T08:27:18.314Z,28.57
2019-04-23T08:29:43.956Z,29.08
2019-04-23T08:32:19.600Z,29.78
2019-04-23T08:34:58.387Z,30.38
2019-04-23T08:37:38.006Z,30.84
2019-04-23T08:40:04.367Z,30.91
2019-04-23T08:42:49.620Z,30.72
2019-04-23T08:48:00.718Z,30.38
2019-04-23T08:50:35.540Z,30.15
2019-04-23T08:53:19.991Z,30.22
2019-04-23T08:55:38.430Z,30.43
2019-04-23T08:58:06.111Z,30.54
2019-04-23T09:00:49.866Z,30.64
2019-04-23T09:03:20.350Z,30.68
2019-04-23T09:08:25.279Z,30.55
2019-04-23T09:10:55.834Z,30.60
2019-04-23T09:15:58.255Z,30.61
2019-04-23T09:18:27.835Z,30.55
2019-04-23T09:21:05.431Z,30.50
2019-04-23T09:26:05.511Z,30.61
2019-04-23T09:31:45.734Z,30.79
2019-04-23T09:34:07.252Z,30.71
2019-04-23T09:36:45.319Z,30.53
2019-04-23T09:39:14.925Z,30.43
2019-04-23T09:41:37.273Z,30.17
2019-04-23T09:47:24.425Z,29.90
2019-04-23T09:49:46.766Z,29.89
2019-04-23T09:52:21.966Z,29.80
2019-04-23T09:54:57.749Z,29.90
2019-04-23T09:57:15.948Z,29.94
2019-04-23T10:00:10.262Z,29.83
2019-04-23T10:02:24.879Z,29.73
2019-04-23T10:04:48.602Z,29.70
2019-04-23T10:07:17.963Z,29.72
2019-04-23T10:09:36.579Z,29.71
2019-04-23T10:12:07.335Z,29.74
2019-04-23T10:14:38.656Z,29.79
2019-04-23T10:17:10.257Z,29.84
2019-04-23T10:19:40.767Z,29.75
2019-04-23T10:22:11.467Z,29.64
2019-04-23T10:24:43.437Z,29.42
2019-04-23T10:27:14.755Z,29.29
2019-04-23T10:29:45.942Z,29.15
2019-04-23T10:32:17.572Z,29.11
2019-04-23T10:34:58.101Z,29.03
2019-04-23T10:37:31.870Z,28.98
2019-04-23T10:39:58.284Z,28.82
2019-04-23T10:42:24.694Z,28.73
2019-04-23T10:45:20.465Z,28.70
2019-04-23T10:51:17.377Z,28.65
2019-04-23T10:53:50.613Z,28.63
2019-04-23T10:56:36.167Z,28.59
2019-04-23T10:58:58.983Z,28.58
2019-04-23T11:01:31.564Z,28.66
2019-04-23T11:04:32.922Z,28.70
2019-04-23T11:06:50.343Z,28.72
2019-04-23T11:09:38.628Z,28.81
2019-04-23T11:11:52.415Z,28.81
2019-04-23T11:14:25.342Z,28.83
2019-04-23T11:19:39.969Z,28.94
2019-04-23T11:22:21.037Z,28.92
2019-04-23T11:27:06.503Z,28.99
2019-04-23T11:32:31.330Z,29.22
2019-04-23T11:35:08.749Z,29.24
2019-04-23T11:39:44.953Z,29.42
2019-04-23T11:42:19.622Z,29.50
2019-04-23T11:44:49.072Z,29.53
2019-04-23T11:48:02.537Z,29.49
2019-04-23T11:50:01.493Z,29.59
2019-04-23T11:52:36.070Z,29.80
2019-04-23T11:55:09.420Z,30.04
2019-04-23T12:00:05.552Z,30.32
2019-04-23T12:02:43.401Z,30.57
2019-04-23T12:05:32.086Z,30.88
2019-04-23T12:07:57.586Z,31.20
2019-04-23T12:10:44.473Z,31.79
2019-04-23T12:13:08.120Z,32.48
2019-04-23T12:15:41.750Z,33.11
2019-04-23T12:18:10.876Z,33.54
2019-04-23T12:20:35.799Z,33.87
2019-04-23T12:23:23.988Z,34.15
2019-04-23T12:26:06.648Z,34.35
2019-04-23T12:28:26.395Z,34.23
2019-04-23T12:30:59.318Z,33.84
2019-04-23T12:33:28.072Z,33.46
2019-04-23T12:35:59.162Z,33.03
2019-04-23T12:38:26.987Z,32.58
2019-04-23T12:40:56.418Z,32.18
2019-04-23T12:43:43.586Z,31.96
2019-04-23T12:45:59.511Z,31.77
2019-04-23T12:50:58.340Z,31.42
2019-04-23T12:56:12.907Z,31.30
2019-04-23T12:58:34.117Z,31.33
2019-04-23T13:01:13.492Z,31.33
2019-04-23T13:03:39.226Z,31.58
2019-04-23T13:06:17.039Z,31.94
2019-04-23T13:13:53.512Z,33.68
2019-04-23T13:16:39.908Z,33.95
2019-04-23T13:18:58.142Z,33.91
2019-04-23T13:24:11.433Z,33.59
2019-04-23T13:26:42.282Z,33.48
2019-04-23T13:29:18.563Z,33.22
2019-04-23T13:31:41.365Z,33.08
2019-04-23T13:34:22.915Z,32.91
2019-04-23T13:36:53.942Z,32.71
2019-04-23T13:39:24.499Z,32.54
2019-04-23T13:41:52.590Z,32.37
2019-04-23T13:44:39.477Z,32.19
2019-04-23T13:47:10.590Z,32.01
2019-04-23T13:49:39.007Z,31.99
2019-04-23T13:52:24.263Z,31.93
2019-04-23T14:02:24.019Z,32.86
2019-04-23T14:05:02.613Z,33.18
2019-04-23T14:07:38.415Z,33.39
2019-04-23T14:10:11.787Z,33.38
2019-04-23T14:13:01.892Z,33.28
2019-04-23T14:15:19.555Z,33.24
2019-04-23T14:17:59.976Z,33.15
2019-04-23T14:23:05.301Z,32.63
2019-04-23T14:25:16.543Z,32.33
2019-04-23T14:27:56.582Z,32.02
2019-04-23T14:30:34.777Z,31.67
2019-04-23T14:33:02.780Z,31.38
2019-04-23T14:38:15.872Z,30.94
2019-04-23T14:40:47.117Z,30.76
2019-04-23T14:43:20.146Z,30.62
2019-04-23T14:45:59.725Z,30.53
2019-04-23T14:48:14.897Z,30.45
2019-04-23T14:50:54.778Z,30.34
2019-04-23T14:53:33.348Z,30.31
2019-04-23T14:58:31.079Z,30.17
2019-04-23T15:01:16.111Z,30.14
2019-04-23T15:03:44.436Z,30.12
2019-04-23T15:06:46.839Z,30.10
2019-04-23T15:13:44.512Z,30.16
2019-04-23T15:16:22.385Z,30.26
2019-04-23T15:27:21.514Z,30.26
2019-04-23T15:28:43.761Z,30.24
2019-04-23T15:31:44.731Z,30.33
2019-04-23T15:34:18.982Z,30.45
2019-04-23T15:39:16.926Z,30.49
2019-04-23T15:41:49.595Z,30.51
2019-04-23T15:44:13.501Z,30.63
2019-04-23T15:46:49.351Z,30.86
2019-04-23T15:49:19.845Z,31.19
2019-04-23T15:54:25.398Z,31.50
2019-04-23T15:56:54.731Z,31.61
2019-04-23T16:01:41.926Z,32.62
2019-04-23T16:04:06.070Z,32.53
2019-04-23T16:06:38.492Z,32.54
2019-04-23T16:09:40.255Z,32.31
2019-04-23T16:12:04.752Z,32.46
2019-04-23T16:14:48.025Z,32.65
2019-04-23T16:17:20.943Z,32.75
2019-04-23T16:20:19.044Z,32.96
2019-04-23T16:22:38.284Z,33.16
2019-04-23T16:27:44.323Z,33.42
2019-04-23T16:30:40.871Z,33.32
2019-04-23T16:32:58.658Z,33.07
2019-04-23T16:35:34.577Z,32.89
2019-04-23T16:38:12.814Z,32.56
2019-04-23T16:40:35.058Z,32.18
2019-04-23T16:48:24.034Z,31.21
2019-04-23T16:50:57.851Z,30.97
2019-04-23T16:53:17.876Z,30.85
2019-04-23T16:56:01.571Z,30.84
2019-04-23T16:58:36.587Z,30.74
2019-04-23T17:05:56.829Z,30.35
2019-04-23T17:08:42.767Z,30.24
2019-04-23T17:11:10.153Z,30.13
2019-04-23T17:13:34.584Z,30.00
2019-04-23T17:21:10.410Z,29.67
2019-04-23T17:26:20.585Z,29.48
2019-04-23T17:28:49.509Z,29.40
2019-04-23T17:31:34.521Z,29.30
2019-04-23T17:36:57.932Z,29.22
2019-04-23T17:39:07.836Z,29.20
2019-04-23T17:41:59.643Z,29.18
2019-04-23T17:44:24.258Z,29.08
2019-04-23T17:46:54.259Z,28.91
2019-04-23T17:49:22.197Z,28.81
2019-04-23T17:51:57.510Z,28.72
2019-04-23T18:02:49.933Z,28.07
2019-04-23T18:07:43.674Z,27.70
2019-04-23T18:10:17.863Z,27.54
2019-04-23T18:15:05.020Z,27.29
2019-04-23T18:17:43.318Z,27.15
2019-04-23T18:20:16.285Z,27.02
2019-04-23T18:22:53.980Z,26.91
2019-04-23T18:25:26.142Z,26.74
2019-04-23T18:27:54.229Z,26.60
2019-04-23T18:31:10.338Z,26.43
2019-04-23T18:33:51.323Z,26.34
2019-04-23T18:35:47.574Z,26.24
2019-04-23T18:38:29.168Z,26.18
2019-04-23T18:41:02.606Z,26.15
2019-04-23T18:46:02.586Z,26.14
2019-04-23T18:48:44.163Z,26.14
2019-04-23T18:53:43.477Z,26.07
2019-04-23T19:01:16.015Z,26.00
2019-04-23T19:06:30.404Z,25.93
2019-04-23T19:11:59.406Z,25.79
2019-04-23T19:14:32.162Z,25.72
2019-04-23T19:17:30.415Z,25.61
2019-04-23T19:19:36.791Z,25.57
2019-04-23T19:22:19.381Z,25.53
2019-04-23T19:24:31.379Z,25.46
2019-04-23T19:32:14.384Z,25.28
2019-04-23T19:34:40.696Z,25.22
2019-04-23T19:39:46.968Z,25.08
2019-04-23T19:42:11.917Z,25.04
2019-04-23T19:44:47.491Z,24.99
2019-04-23T19:47:17.232Z,24.93
2019-04-23T19:49:50.235Z,24.84
2019-04-23T19:52:20.268Z,24.78
2019-04-23T19:54:55.032Z,24.73
2019-04-23T19:57:42.547Z,24.68
2019-04-23T20:02:38.641Z,24.52
2019-04-23T20:04:55.445Z,24.44
2019-04-23T20:07:43.133Z,24.38
2019-04-23T20:09:56.891Z,24.30
2019-04-23T20:12:40.845Z,24.23
2019-04-23T20:14:59.975Z,24.21
2019-04-23T20:20:08.783Z,24.17
2019-04-23T20:22:47.312Z,24.16
2019-04-23T20:25:38.165Z,24.13
2019-04-23T20:27:54.253Z,24.09
2019-04-23T20:33:27.916Z,24.07
2019-04-23T20:35:24.348Z,24.06
2019-04-23T20:43:14.997Z,23.94
2019-04-23T20:45:38.932Z,23.90
2019-04-23T20:48:09.395Z,23.86
2019-04-23T20:50:34.173Z,23.83
2019-04-23T20:53:00.016Z,23.82
2019-04-23T20:55:52.893Z,23.74
2019-04-23T20:58:03.156Z,23.66
2019-04-23T21:01:07.611Z,23.60
2019-04-23T21:03:30.869Z,23.56
2019-04-23T21:05:43.055Z,23.52
2019-04-23T21:08:30.698Z,23.47
2019-04-23T21:10:51.040Z,23.37
2019-04-23T21:13:43.054Z,23.32
2019-04-23T21:15:52.714Z,23.29
2019-04-23T21:18:32.984Z,23.23
2019-04-23T21:20:56.116Z,23.16
2019-04-23T21:23:37.439Z,23.11
2019-04-23T21:26:07.883Z,23.06
2019-04-23T21:28:40.049Z,23.04
2019-04-23T21:31:06.534Z,23.06
2019-04-23T21:33:43.844Z,23.03
2019-04-23T21:36:25.353Z,22.94
2019-04-23T21:39:15.363Z,22.87
2019-04-23T21:44:18.132Z,22.69
2019-04-23T21:46:54.172Z,22.68
2019-04-23T21:49:25.247Z,22.69
2019-04-23T21:51:53.815Z,22.72
2019-04-23T21:54:21.158Z,22.71
2019-04-23T21:59:17.567Z,22.71
2019-04-23T22:01:55.930Z,22.69
2019-04-23T22:12:05.191Z,22.56
2019-04-23T22:14:33.433Z,22.53
2019-04-23T22:17:09.608Z,22.48
2019-04-23T22:19:29.518Z,22.43
2019-04-23T22:22:22.165Z,22.39
2019-04-23T22:24:33.160Z,22.35
2019-04-23T22:27:06.524Z,22.33
2019-04-23T22:32:05.533Z,22.25
2019-04-23T22:39:45.729Z,22.16
2019-04-23T22:45:02.982Z,21.99
2019-04-23T22:47:13.591Z,21.92
2019-04-23T22:50:05.825Z,21.92
2019-04-23T22:52:23.321Z,21.90
2019-04-23T22:57:39.501Z,21.84
2019-04-23T23:00:11.224Z,21.80
2019-04-23T23:07:48.965Z,21.74
2019-04-23T23:10:12.834Z,21.71
2019-04-23T23:12:52.810Z,21.68
2019-04-23T23:15:15.935Z,21.66
2019-04-23T23:17:52.643Z,21.64
2019-04-23T23:22:52.284Z,21.63
2019-04-23T23:25:19.145Z,21.62
2019-04-23T23:27:54.270Z,21.60
2019-04-23T23:32:51.849Z,21.51
2019-04-23T23:35:24.543Z,21.49
2019-04-23T23:37:49.898Z,21.44
2019-04-23T23:40:20.318Z,21.37
2019-04-23T23:43:03.686Z,21.34
2019-04-23T23:48:10.103Z,21.31
2019-04-23T23:50:25.523Z,21.31
2019-04-23T23:53:58.545Z,21.29
2019-04-23T23:55:27.719Z,21.29
2019-04-23T23:58:06.769Z,21.28
